Care.com Institutional Ownership (NYSE:CRCM)

$10.15
-0.01 (-0.10 %)
(As of 09/23/2019 02:45 AM ET)
Today's Range
$10.05
Now: $10.15
$10.26
50-Day Range
$7.65
MA: $9.83
$10.82
52-Week Range
$7.61
Now: $10.15
$25.81
Volume491,437 shs
Average Volume443,308 shs
Market Capitalization$332.51 million
P/E Ratio28.19
Dividend YieldN/A
Beta0.98

Institutional Ownership

Institutional Ownership Changes (13F Filings) for Care.com (NYSE:CRCM)

Institutional Ownership Percentage: 84.39%

Care.com (NYSE CRCM) Institutional Buying and Selling

Reporting DateHedge FundShares HeldMarket Value% of PortfolioQuarterly Change in SharesOwnership in Company
9/5/2019Harbourvest Partners LLC13,115$0.14M0.1%N/A0.040%
8/29/2019Hancock Whitney Corp35,495$0.39M0.0%-54.7%0.108%
8/15/2019Voloridge Investment Management LLC15,325$0.17M0.0%N/A0.047%
8/14/2019D. E. Shaw & Co. Inc.423,405$4.65M0.0%+136.3%1.292%
8/14/2019Cubist Systematic Strategies LLC35,997$0.40M0.0%N/A0.110%
8/14/2019Potrero Capital Research LLC68,997$0.76M0.4%-6.0%0.211%
8/14/2019Morgan Stanley233,052$2.56M0.0%+597.6%0.711%
8/14/2019Cloverdale Capital Management LLC943,998$10.37M7.1%N/A2.881%
8/14/2019AQR Capital Management LLC329,776$3.62M0.0%+6.9%1.006%
8/14/2019Man Group plc177,457$1.95M0.0%-40.5%0.542%
8/14/2019Bank of America Corp DE52,715$0.58M0.0%+4.8%0.161%
8/14/2019Algert Global LLC13,540$0.15M0.1%N/A0.041%
8/14/2019Invesco Ltd.217,387$2.39M0.0%-28.7%0.663%
8/14/2019Vanguard Group Inc.1,658,636$18.21M0.0%-10.5%5.062%
8/13/2019Crestline Management LP30,000$0.33M0.0%N/A0.092%
8/13/2019Jacobs Levy Equity Management Inc.122,099$1.34M0.0%-36.0%0.373%
8/13/2019Laurion Capital Management LP43,492$0.48M0.0%N/A0.133%
8/13/2019Tower Research Capital LLC TRC 8,165$89K0.0%N/A0.025%
8/13/2019BlackRock Inc.4,267,595$46.86M0.0%+5.0%13.027%
8/13/2019HarbourVest Partners LLC13,115$0.14M0.1%N/A0.040%
8/13/2019Northern Trust Corp276,092$3.03M0.0%+3.6%0.843%
8/12/2019Pacer Advisors Inc.7,209$79K0.0%N/A0.022%
8/12/2019Renaissance Technologies LLC2,386,200$26.20M0.0%+17.6%7.283%
8/12/2019Bank of New York Mellon Corp287,110$3.15M0.0%+1.2%0.876%
8/10/2019Charles Schwab Investment Management Inc.57,059$0.63M0.0%+9.8%0.176%
8/10/2019Oppenheimer Asset Management Inc.3,160$35K0.0%-33.2%0.010%
8/9/2019Bank of Montreal Can53,964$0.59M0.0%-25.9%0.166%
8/9/2019Panagora Asset Management Inc.30,828$0.34M0.0%-87.3%0.095%
8/9/2019Russell Investments Group Ltd.42,413$0.47M0.0%-40.3%0.131%
8/9/2019Prudential Financial Inc.42,574$0.47M0.0%-82.7%0.131%
8/8/2019Allianz Asset Management GmbH147,665$1.62M0.0%+6.5%0.455%
8/8/2019Acadian Asset Management LLC450,837$4.95M0.0%-36.4%1.388%
8/7/2019Menta Capital LLC10,747$0.12M0.1%N/A0.033%
8/7/2019Granite Investment Partners LLC43,622$0.48M0.0%-12.0%0.134%
8/7/2019JPMorgan Chase & Co.249,964$2.75M0.0%+5,040.1%0.770%
8/6/2019Wells Fargo & Company MN51,049$0.56M0.0%+14.3%0.157%
8/6/2019Stone Ridge Asset Management LLC27,409$0.30M0.0%-7.4%0.084%
8/5/2019State Board of Administration of Florida Retirement System16,202$0.18M0.0%-7.9%0.050%
8/2/2019Swiss National Bank53,200$0.58M0.0%+14.7%0.164%
8/2/2019Comerica Bank23,912$0.26M0.0%-6.4%0.074%
8/1/2019Clark Estates Inc. NY132,387$1.45M0.2%N/A0.408%
7/31/2019Municipal Employees Retirement System of Michigan52,810$0.58M0.0%+595.8%0.163%
7/30/2019Aperio Group LLC3,349$37K0.0%N/A0.010%
7/30/2019Boston Advisors LLC13,000$0.14M0.0%-59.6%0.040%
7/30/2019BNP Paribas Arbitrage SA2,443$27K0.0%-41.1%0.008%
6/30/2019SG Americas Securities LLC222,227$2.44M0.0%+130.3%0.684%
6/30/2019Strs Ohio75,389$0.83M0.0%+13.7%0.232%
6/30/2019Arizona State Retirement System41,311$0.45M0.0%+2.7%0.127%
6/30/2019First Quadrant L P CA3,363$37K0.0%-86.1%0.010%
6/30/2019NJ State Employees Deferred Compensation Plan12,000$0.13M0.0%-40.0%0.037%
6/30/2019Capital Impact Advisors LLC121,565$1.34M0.5%+35.7%0.374%
6/30/2019New York State Teachers Retirement System10,176$0.11M0.0%-26.7%0.031%
6/16/2019Marshall Wace LLP60,227$1.19M0.0%N/A0.185%
5/13/2019Granite Investment Partners LLC49,562$0.98M0.1%+41.0%0.132%
5/13/2019ClariVest Asset Management LLC50,500$1M0.0%-19.4%0.134%
5/13/2019Hancock Whitney Corp78,385$1.55M0.0%+7.0%0.209%
5/13/2019Dynamic Technology Lab Private Ltd37,849$0.75M0.1%N/A0.101%
5/10/2019Globeflex Capital L P55,201$1.09M0.2%-45.5%0.147%
5/10/2019Fort Washington Investment Advisors Inc. OH360,000$7.11M0.1%-10.0%0.958%
5/10/2019PNC Financial Services Group Inc.188,889$3.73M0.0%+34,879.4%0.503%
5/9/2019Royce & Associates LP191,987$3.79M0.0%+8.5%0.511%
5/9/2019Acadian Asset Management LLC708,623$14M0.1%-2.2%1.886%
5/8/2019Great West Life Assurance Co. Can33,699$0.67M0.0%+555.6%0.090%
5/7/2019Oregon Public Employees Retirement Fund10,182$0.20M0.0%N/A0.027%
5/7/2019Spark Investment Management LLC24,700$0.49M0.0%-92.6%0.066%
5/7/2019Mason Street Advisors LLC8,374$0.17M0.0%N/A0.022%
5/7/2019Cadence Capital Management LLC97,395$1.93M0.2%-40.7%0.259%
5/7/2019New York State Teachers Retirement System13,876$0.27M0.0%N/A0.037%
5/3/2019State Board of Administration of Florida Retirement System17,588$0.35M0.0%+9.8%0.047%
5/2/2019Crossmark Global Holdings Inc.15,790$0.31M0.0%N/A0.042%
5/2/2019Texas Permanent School Fund17,704$0.35M0.0%N/A0.047%
5/2/2019Comerica Bank25,556$0.43M0.0%N/A0.068%
5/1/2019Rhumbline Advisers66,208$1.31M0.0%+156.2%0.176%
5/1/2019Rice Hall James & Associates LLC92,005$1.82M0.1%-30.0%0.286%
5/1/2019NJ State Employees Deferred Compensation Plan20,000$0.40M0.1%N/A0.062%
4/29/2019SG Americas Securities LLC96,496$1.91M0.0%N/A0.300%
4/29/2019Arizona State Retirement System40,222$0.80M0.0%N/A0.125%
4/29/2019Zurcher Kantonalbank Zurich Cantonalbank1,599$32K0.0%-27.6%0.005%
4/26/2019Bank of Montreal Can72,826$1.44M0.0%+237.1%0.226%
4/26/2019Assenagon Asset Management S.A.63,688$1.26M0.0%+40.6%0.198%
4/25/2019BNP Paribas Arbitrage SA4,145$82K0.0%+82,800.0%0.013%
4/25/2019LS Investment Advisors LLC6,301$0.13M0.0%N/A0.020%
4/25/2019Los Angeles Capital Management & Equity Research Inc.62,069$1.23M0.0%-32.3%0.193%
4/24/2019Oppenheimer Asset Management Inc.4,732$94K0.0%+192.8%0.015%
4/24/2019West Chester Capital Advisors Inc.10,000$0.20M0.4%N/A0.031%
4/24/2019First Quadrant L P CA24,143$0.48M0.0%+617.7%0.075%
4/23/2019Boston Advisors LLC32,218$0.64M0.0%-59.3%0.100%
4/22/2019Howland Capital Management LLC12,500$0.25M0.0%-44.4%0.039%
4/22/2019Foundry Partners LLC77,454$1.53M0.1%-6.1%0.241%
4/19/2019Strs Ohio66,289$1.31M0.0%-3.1%0.206%
4/9/2019State of Alaska Department of Revenue8,785$0.17M0.0%N/A0.027%
4/1/2019Deutsche Bank AG78,999$1.52M0.0%+29.0%0.245%
3/6/2019American Century Companies Inc.367,848$7.10M0.0%+1.5%1.157%
2/26/2019Dimensional Fund Advisors LP423,460$8.18M0.0%+100.6%1.332%
2/26/2019FMR LLC359,100$6.93M0.0%-4.8%1.129%
2/15/2019Public Employees Retirement System of Ohio185,434$3.58M0.0%-9.9%0.583%
2/15/2019Millennium Management LLC1,201,397$23.20M0.0%+346.1%3.778%
2/15/2019Macquarie Group Ltd.13,494$0.26M0.0%-40.9%0.042%
2/15/2019Hancock Whitney Corp73,263$1.42M0.0%-8.6%0.230%
2/15/2019Legal & General Group Plc3,784$73K0.0%-71.9%0.012%
(Data available from 1/1/2016 forward)
This page was last updated on 9/23/2019 by MarketBeat.com Staff

Featured Article: Recession

Enter your email address below to receive a concise daily summary of analysts' upgrades, downgrades and new coverage with MarketBeat.com's FREE daily email newsletter.

Yahoo Gemini Pixel